sensor_id;sensor_type;location;lat;lon;timestamp;pressure;altitude;pressure_sealevel;temperature;humidity
46291;BME280;32023;44.444;26.006;2023-08-07T00:01:20;99265.13;;;20.66;59.22
46291;BME280;32023;44.444;26.006;2023-08-07T00:03:49;99267.81;;;20.63;59.25
46291;BME280;32023;44.444;26.006;2023-08-07T00:06:18;99279.59;;;20.56;59.67
46291;BME280;32023;44.444;26.006;2023-08-07T00:08:45;99292.56;;;20.49;60.11
46291;BME280;32023;44.444;26.006;2023-08-07T00:11:12;99268.69;;;20.39;60.56
46291;BME280;32023;44.444;26.006;2023-08-07T00:13:38;99286.97;;;20.37;60.73
46291;BME280;32023;44.444;26.006;2023-08-07T00:16:05;99278.84;;;20.32;61.06
46291;BME280;32023;44.444;26.006;2023-08-07T00:18:31;99278.56;;;20.25;61.25
46291;BME280;32023;44.444;26.006;2023-08-07T00:20:57;99278.09;;;20.23;61.64
46291;BME280;32023;44.444;26.006;2023-08-07T00:23:24;99282.97;;;20.13;62.11
46291;BME280;32023;44.444;26.006;2023-08-07T00:25:50;99308.38;;;20.08;62.47
46291;BME280;32023;44.444;26.006;2023-08-07T00:28:19;99286.47;;;19.98;62.94
46291;BME280;32023;44.444;26.006;2023-08-07T00:30:52;99281.13;;;19.93;63.30
46291;BME280;32023;44.444;26.006;2023-08-07T00:33:23;99293.69;;;19.87;63.67
46291;BME280;32023;44.444;26.006;2023-08-07T00:35:54;99291.59;;;19.84;64.03
46291;BME280;32023;44.444;26.006;2023-08-07T00:38:20;99293.81;;;19.79;64.40
46291;BME280;32023;44.444;26.006;2023-08-07T00:40:49;99289.94;;;19.71;64.84
46291;BME280;32023;44.444;26.006;2023-08-07T00:43:29;99305.28;;;19.65;65.46
46291;BME280;32023;44.444;26.006;2023-08-07T00:46:05;99296.44;;;19.63;65.75
46291;BME280;32023;44.444;26.006;2023-08-07T00:48:32;99295.50;;;19.59;66.11
46291;BME280;32023;44.444;26.006;2023-08-07T00:50:59;99316.91;;;19.55;66.51
46291;BME280;32023;44.444;26.006;2023-08-07T00:53:26;99299.06;;;19.47;66.89
46291;BME280;32023;44.444;26.006;2023-08-07T00:55:56;99309.63;;;19.42;67.25
46291;BME280;32023;44.444;26.006;2023-08-07T00:58:26;99322.63;;;19.38;67.71
46291;BME280;32023;44.444;26.006;2023-08-07T01:00:53;99305.72;;;19.34;68.08
46291;BME280;32023;44.444;26.006;2023-08-07T01:03:19;99309.91;;;19.28;68.45
46291;BME280;32023;44.444;26.006;2023-08-07T01:05:51;99324.44;;;19.21;68.97
46291;BME280;32023;44.444;26.006;2023-08-07T01:08:20;99323.81;;;19.16;69.33
46291;BME280;32023;44.444;26.006;2023-08-07T01:13:45;99322.97;;;19.03;70.33
46291;BME280;32023;44.444;26.006;2023-08-07T01:16:30;99322.53;;;18.93;71.09
46291;BME280;32023;44.444;26.006;2023-08-07T01:19:00;99328.66;;;18.86;71.62
46291;BME280;32023;44.444;26.006;2023-08-07T01:21:27;99322.38;;;18.89;71.82
46291;BME280;32023;44.444;26.006;2023-08-07T01:23:53;99321.94;;;18.87;71.91
46291;BME280;32023;44.444;26.006;2023-08-07T01:26:32;99337.72;;;18.83;72.34
46291;BME280;32023;44.444;26.006;2023-08-07T01:29:28;99345.59;;;18.81;72.24
46291;BME280;32023;44.444;26.006;2023-08-07T01:32:00;99338.25;;;18.77;72.68
46291;BME280;32023;44.444;26.006;2023-08-07T01:34:38;99336.94;;;18.74;72.98
46291;BME280;32023;44.444;26.006;2023-08-07T01:37:11;99337.94;;;18.69;73.43
46291;BME280;32023;44.444;26.006;2023-08-07T01:39:46;99343.75;;;18.64;73.75
46291;BME280;32023;44.444;26.006;2023-08-07T01:42:25;99354.75;;;18.61;73.84
46291;BME280;32023;44.444;26.006;2023-08-07T01:45:02;99353.94;;;18.60;74.24
46291;BME280;32023;44.444;26.006;2023-08-07T01:47:28;99358.06;;;18.54;74.53
46291;BME280;32023;44.444;26.006;2023-08-07T01:49:58;99359.06;;;18.50;74.80
46291;BME280;32023;44.444;26.006;2023-08-07T01:52:39;99361.34;;;18.48;75.02
46291;BME280;32023;44.444;26.006;2023-08-07T01:55:09;99375.97;;;18.45;75.13
46291;BME280;32023;44.444;26.006;2023-08-07T01:57:37;99361.88;;;18.41;75.03
46291;BME280;32023;44.444;26.006;2023-08-07T02:00:04;99371.25;;;18.37;74.84
46291;BME280;32023;44.444;26.006;2023-08-07T02:02:35;99371.25;;;18.37;74.56
46291;BME280;32023;44.444;26.006;2023-08-07T02:05:01;99363.88;;;18.32;74.56
46291;BME280;32023;44.444;26.006;2023-08-07T02:07:31;99378.84;;;18.27;74.66
46291;BME280;32023;44.444;26.006;2023-08-07T02:10:00;99377.22;;;18.26;74.63
46291;BME280;32023;44.444;26.006;2023-08-07T02:12:59;99378.53;;;18.20;74.51
46291;BME280;32023;44.444;26.006;2023-08-07T02:15:28;99390.72;;;18.16;74.44
46291;BME280;32023;44.444;26.006;2023-08-07T02:17:57;99390.56;;;18.12;74.41
46291;BME280;32023;44.444;26.006;2023-08-07T02:20:24;99378.44;;;18.08;74.22
46291;BME280;32023;44.444;26.006;2023-08-07T02:22:50;99363.69;;;18.08;74.09
46291;BME280;32023;44.444;26.006;2023-08-07T02:25:24;99370.25;;;18.03;73.93
46291;BME280;32023;44.444;26.006;2023-08-07T02:28:00;99380.09;;;18.01;73.99
46291;BME280;32023;44.444;26.006;2023-08-07T02:30:26;99395.03;;;17.96;73.92
46291;BME280;32023;44.444;26.006;2023-08-07T02:32:52;99392.41;;;17.91;73.78
46291;BME280;32023;44.444;26.006;2023-08-07T02:35:19;99395.88;;;17.88;73.73
46291;BME280;32023;44.444;26.006;2023-08-07T02:37:48;99403.56;;;17.83;73.95
46291;BME280;32023;44.444;26.006;2023-08-07T02:40:14;99403.41;;;17.79;73.95
46291;BME280;32023;44.444;26.006;2023-08-07T02:42:44;99410.97;;;17.78;73.92
46291;BME280;32023;44.444;26.006;2023-08-07T02:45:10;99417.19;;;17.75;73.95
46291;BME280;32023;44.444;26.006;2023-08-07T02:47:39;99407.53;;;17.73;73.96
46291;BME280;32023;44.444;26.006;2023-08-07T02:50:06;99404.13;;;17.67;74.22
46291;BME280;32023;44.444;26.006;2023-08-07T02:52:33;99416.72;;;17.65;74.21
46291;BME280;32023;44.444;26.006;2023-08-07T02:55:01;99409.84;;;17.62;74.39
46291;BME280;32023;44.444;26.006;2023-08-07T02:57:32;99420.16;;;17.62;74.27
46291;BME280;32023;44.444;26.006;2023-08-07T03:00:03;99410.97;;;17.61;74.12
46291;BME280;32023;44.444;26.006;2023-08-07T03:02:33;99414.13;;;17.60;74.09
46291;BME280;32023;44.444;26.006;2023-08-07T03:05:05;99415.56;;;17.57;74.23
46291;BME280;32023;44.444;26.006;2023-08-07T03:07:32;99412.28;;;17.55;74.23
46291;BME280;32023;44.444;26.006;2023-08-07T03:10:01;99427.03;;;17.56;74.37
46291;BME280;32023;44.444;26.006;2023-08-07T03:12:30;99428.81;;;17.52;74.31
46291;BME280;32023;44.444;26.006;2023-08-07T03:14:59;99428.81;;;17.52;74.34
46291;BME280;32023;44.444;26.006;2023-08-07T03:17:29;99425.53;;;17.50;74.31
46291;BME280;32023;44.444;26.006;2023-08-07T03:20:04;99430.13;;;17.46;74.44
46291;BME280;32023;44.444;26.006;2023-08-07T03:22:31;99432.91;;;17.46;74.57
46291;BME280;32023;44.444;26.006;2023-08-07T03:25:00;99440.44;;;17.45;74.71
46291;BME280;32023;44.444;26.006;2023-08-07T03:27:26;99447.78;;;17.41;74.98
46291;BME280;32023;44.444;26.006;2023-08-07T03:30:02;99445.53;;;17.43;74.86
46291;BME280;32023;44.444;26.006;2023-08-07T03:32:33;99445.00;;;17.41;74.91
46291;BME280;32023;44.444;26.006;2023-08-07T03:35:09;99443.72;;;17.39;75.19
46291;BME280;32023;44.444;26.006;2023-08-07T03:37:49;99437.66;;;17.37;75.22
46291;BME280;32023;44.444;26.006;2023-08-07T03:40:24;99437.66;;;17.37;75.11
46291;BME280;32023;44.444;26.006;2023-08-07T03:42:53;99437.66;;;17.37;75.20
46291;BME280;32023;44.444;26.006;2023-08-07T03:45:23;99443.88;;;17.42;74.90
46291;BME280;32023;44.444;26.006;2023-08-07T03:47:52;99442.91;;;17.47;75.05
46291;BME280;32023;44.444;26.006;2023-08-07T03:50:19;99444.84;;;17.46;74.85
46291;BME280;32023;44.444;26.006;2023-08-07T03:53:11;99448.47;;;17.47;74.58
46291;BME280;32023;44.444;26.006;2023-08-07T03:59:18;99458.13;;;17.49;74.40
46291;BME280;32023;44.444;26.006;2023-08-07T04:01:53;99461.25;;;17.48;74.09
46291;BME280;32023;44.444;26.006;2023-08-07T04:07:47;99469.78;;;17.60;73.85
46291;BME280;32023;44.444;26.006;2023-08-07T04:10:18;99460.28;;;17.61;73.57
46291;BME280;32023;44.444;26.006;2023-08-07T04:12:48;99459.28;;;17.65;73.51
46291;BME280;32023;44.444;26.006;2023-08-07T04:18:31;99474.34;;;17.73;72.68
46291;BME280;32023;44.444;26.006;2023-08-07T04:21:25;99472.06;;;17.75;72.35
46291;BME280;32023;44.444;26.006;2023-08-07T04:23:54;99477.16;;;17.82;72.48
46291;BME280;32023;44.444;26.006;2023-08-07T04:26:21;99477.31;;;17.85;72.08
46291;BME280;32023;44.444;26.006;2023-08-07T04:35:24;99484.47;;;18.03;71.17
46291;BME280;32023;44.444;26.006;2023-08-07T04:37:53;99484.78;;;18.10;70.75
46291;BME280;32023;44.444;26.006;2023-08-07T04:40:27;99493.97;;;18.19;70.75
46291;BME280;32023;44.444;26.006;2023-08-07T04:42:54;99491.13;;;18.28;70.16
46291;BME280;32023;44.444;26.006;2023-08-07T04:45:24;99485.75;;;18.32;69.94
46291;BME280;32023;44.444;26.006;2023-08-07T04:48:05;99488.31;;;18.37;69.33
46291;BME280;32023;44.444;26.006;2023-08-07T04:50:46;99494.41;;;18.39;68.92
46291;BME280;32023;44.444;26.006;2023-08-07T04:56:26;99500.75;;;18.48;68.33
46291;BME280;32023;44.444;26.006;2023-08-07T04:58:53;99476.22;;;18.33;67.76
46291;BME280;32023;44.444;26.006;2023-08-07T05:01:27;99500.75;;;18.56;67.55
46291;BME280;32023;44.444;26.006;2023-08-07T05:04:02;99499.09;;;18.64;67.39
46291;BME280;32023;44.444;26.006;2023-08-07T05:06:33;99502.69;;;18.73;67.25
46291;BME280;32023;44.444;26.006;2023-08-07T05:09:02;99507.22;;;18.77;66.74
46291;BME280;32023;44.444;26.006;2023-08-07T05:11:47;99502.63;;;18.82;66.26
46291;BME280;32023;44.444;26.006;2023-08-07T05:14:22;99508.63;;;18.92;66.20
46291;BME280;32023;44.444;26.006;2023-08-07T05:16:51;99514.53;;;18.99;65.43
46291;BME280;32023;44.444;26.006;2023-08-07T05:19:18;99507.31;;;18.98;64.95
46291;BME280;32023;44.444;26.006;2023-08-07T05:22:06;99500.09;;;18.97;65.06
46291;BME280;32023;44.444;26.006;2023-08-07T05:24:53;99510.38;;;19.05;64.90
46291;BME280;32023;44.444;26.006;2023-08-07T05:27:46;99511.03;;;19.11;64.80
46291;BME280;32023;44.444;26.006;2023-08-07T05:30:13;99505.03;;;19.21;64.45
46291;BME280;32023;44.444;26.006;2023-08-07T05:32:49;99514.72;;;19.23;63.63
46291;BME280;32023;44.444;26.006;2023-08-07T05:35:15;99522.69;;;19.34;63.66
46291;BME280;32023;44.444;26.006;2023-08-07T05:38:00;99531.88;;;19.43;62.89
46291;BME280;32023;44.444;26.006;2023-08-07T05:40:29;99519.50;;;19.52;62.86
46291;BME280;32023;44.444;26.006;2023-08-07T05:42:56;99527.09;;;19.64;62.21
46291;BME280;32023;44.444;26.006;2023-08-07T05:45:28;99531.34;;;19.70;61.66
46291;BME280;32023;44.444;26.006;2023-08-07T05:48:00;99539.31;;;19.80;61.17
46291;BME280;32023;44.444;26.006;2023-08-07T05:50:29;99537.34;;;19.81;60.86
46291;BME280;32023;44.444;26.006;2023-08-07T05:53:01;99534.81;;;19.88;60.75
46291;BME280;32023;44.444;26.006;2023-08-07T05:55:31;99526.81;;;19.98;59.81
46291;BME280;32023;44.444;26.006;2023-08-07T05:57:57;99533.28;;;20.11;59.98
46291;BME280;32023;44.444;26.006;2023-08-07T06:00:24;99540.28;;;20.17;59.17
46291;BME280;32023;44.444;26.006;2023-08-07T06:02:56;99527.06;;;20.26;58.77
46291;BME280;32023;44.444;26.006;2023-08-07T06:05:23;99530.63;;;20.35;59.15
46291;BME280;32023;44.444;26.006;2023-08-07T06:07:55;99530.28;;;20.49;58.26
46291;BME280;32023;44.444;26.006;2023-08-07T06:10:24;99506.53;;;20.43;56.95
46291;BME280;32023;44.444;26.006;2023-08-07T06:13:01;99535.25;;;20.76;56.88
46291;BME280;32023;44.444;26.006;2023-08-07T06:15:33;99527.81;;;20.80;56.60
46291;BME280;32023;44.444;26.006;2023-08-07T06:18:11;99543.53;;;20.85;56.33
46291;BME280;32023;44.444;26.006;2023-08-07T06:20:46;99535.28;;;20.88;56.39
46291;BME280;32023;44.444;26.006;2023-08-07T06:23:13;99541.34;;;21.02;56.22
46291;BME280;32023;44.444;26.006;2023-08-07T06:25:42;99549.41;;;21.16;55.84
46291;BME280;32023;44.444;26.006;2023-08-07T06:28:11;99554.44;;;21.35;55.50
46291;BME280;32023;44.444;26.006;2023-08-07T06:30:37;99560.25;;;21.42;54.00
46291;BME280;32023;44.444;26.006;2023-08-07T06:33:04;99573.31;;;21.50;54.13
46291;BME280;32023;44.444;26.006;2023-08-07T06:35:38;99553.13;;;21.56;53.40
46291;BME280;32023;44.444;26.006;2023-08-07T06:41:51;99572.91;;;21.88;52.53
46291;BME280;32023;44.444;26.006;2023-08-07T06:44:18;99584.84;;;21.97;52.27
46291;BME280;32023;44.444;26.006;2023-08-07T06:46:50;99575.78;;;22.16;51.71
46291;BME280;32023;44.444;26.006;2023-08-07T06:49:16;99578.28;;;22.33;51.25
46291;BME280;32023;44.444;26.006;2023-08-07T06:51:49;99599.25;;;22.51;50.32
46291;BME280;32023;44.444;26.006;2023-08-07T06:54:22;99589.81;;;22.71;50.02
46291;BME280;32023;44.444;26.006;2023-08-07T07:00:05;99565.47;;;22.75;48.58
46291;BME280;32023;44.444;26.006;2023-08-07T07:02:31;99603.53;;;23.04;47.78
46291;BME280;32023;44.444;26.006;2023-08-07T07:08:46;99603.38;;;23.13;46.01
46291;BME280;32023;44.444;26.006;2023-08-07T07:11:27;99606.09;;;23.25;44.11
46291;BME280;32023;44.444;26.006;2023-08-07T07:14:06;99604.00;;;23.37;44.67
46291;BME280;32023;44.444;26.006;2023-08-07T07:23:09;99611.72;;;23.91;42.49
46291;BME280;32023;44.444;26.006;2023-08-07T07:29:28;99613.50;;;24.15;41.78
46291;BME280;32023;44.444;26.006;2023-08-07T07:32:25;99616.41;;;24.37;41.66
46291;BME280;32023;44.444;26.006;2023-08-07T07:35:08;99622.03;;;24.57;41.74
46291;BME280;32023;44.444;26.006;2023-08-07T07:38:05;99616.03;;;24.77;41.04
46291;BME280;32023;44.444;26.006;2023-08-07T07:40:33;99619.44;;;24.86;40.75
46291;BME280;32023;44.444;26.006;2023-08-07T07:43:06;99623.44;;;24.85;40.20
46291;BME280;32023;44.444;26.006;2023-08-07T07:45:33;99620.31;;;24.90;40.31
46291;BME280;32023;44.444;26.006;2023-08-07T07:48:05;99626.78;;;24.91;39.95
46291;BME280;32023;44.444;26.006;2023-08-07T07:50:43;99626.53;;;25.00;40.03
46291;BME280;32023;44.444;26.006;2023-08-07T07:53:32;99628.56;;;25.22;39.28
46291;BME280;32023;44.444;26.006;2023-08-07T07:59:34;99624.75;;;25.56;37.83
46291;BME280;32023;44.444;26.006;2023-08-07T08:08:54;99630.94;;;25.92;36.25
46291;BME280;32023;44.444;26.006;2023-08-07T08:14:09;99624.94;;;26.19;35.73
46291;BME280;32023;44.444;26.006;2023-08-07T08:16:53;99627.50;;;26.31;34.58
46291;BME280;32023;44.444;26.006;2023-08-07T08:19:28;99626.06;;;26.45;34.36
46291;BME280;32023;44.444;26.006;2023-08-07T08:29:32;99627.16;;;27.00;32.21
46291;BME280;32023;44.444;26.006;2023-08-07T08:32:03;99628.75;;;27.01;33.42
46291;BME280;32023;44.444;26.006;2023-08-07T08:34:36;99634.13;;;27.13;33.72
46291;BME280;32023;44.444;26.006;2023-08-07T08:37:27;99635.03;;;27.20;32.86
46291;BME280;32023;44.444;26.006;2023-08-07T08:40:05;99629.03;;;27.25;33.15
46291;BME280;32023;44.444;26.006;2023-08-07T08:42:33;99629.53;;;27.38;33.36
46291;BME280;32023;44.444;26.006;2023-08-07T08:45:23;99645.84;;;27.48;33.75
46291;BME280;32023;44.444;26.006;2023-08-07T08:48:15;99640.28;;;27.62;32.75
46291;BME280;32023;44.444;26.006;2023-08-07T08:50:56;99628.19;;;27.65;32.91
46291;BME280;32023;44.444;26.006;2023-08-07T09:01:09;99637.78;;;28.05;30.99
46291;BME280;32023;44.444;26.006;2023-08-07T09:04:11;99634.72;;;28.31;30.54
46291;BME280;32023;44.444;26.006;2023-08-07T09:07:06;99643.94;;;28.17;30.19
46291;BME280;32023;44.444;26.006;2023-08-07T09:09:47;99647.63;;;28.25;29.83
46291;BME280;32023;44.444;26.006;2023-08-07T09:12:26;99636.75;;;28.34;30.06
46291;BME280;32023;44.444;26.006;2023-08-07T09:15:08;99643.28;;;28.45;28.97
46291;BME280;32023;44.444;26.006;2023-08-07T09:17:41;99629.56;;;28.54;29.44
46291;BME280;32023;44.444;26.006;2023-08-07T09:20:11;99630.44;;;28.65;29.18
46291;BME280;32023;44.444;26.006;2023-08-07T09:22:39;99645.09;;;28.82;28.30
46291;BME280;32023;44.444;26.006;2023-08-07T09:25:18;99656.88;;;28.98;28.16
46291;BME280;32023;44.444;26.006;2023-08-07T09:28:06;99641.03;;;28.79;28.03
46291;BME280;32023;44.444;26.006;2023-08-07T09:30:38;99641.50;;;28.99;28.02
46291;BME280;32023;44.444;26.006;2023-08-07T09:33:18;99652.88;;;29.13;27.96
46291;BME280;32023;44.444;26.006;2023-08-07T09:39:03;99666.63;;;29.04;26.71
46291;BME280;32023;44.444;26.006;2023-08-07T09:41:50;99657.38;;;29.35;27.07
46291;BME280;32023;44.444;26.006;2023-08-07T09:44:25;99661.47;;;29.41;27.01
46291;BME280;32023;44.444;26.006;2023-08-07T09:47:12;99657.81;;;29.73;27.50
46291;BME280;32023;44.444;26.006;2023-08-07T09:50:05;99656.16;;;30.28;26.05
46291;BME280;32023;44.444;26.006;2023-08-07T09:59:44;99659.66;;;30.75;25.53
46291;BME280;32023;44.444;26.006;2023-08-07T10:03:01;99658.91;;;30.64;26.27
46291;BME280;32023;44.444;26.006;2023-08-07T10:06:14;99662.16;;;30.69;25.34
46291;BME280;32023;44.444;26.006;2023-08-07T10:09:42;99647.41;;;30.99;25.64
46291;BME280;32023;44.444;26.006;2023-08-07T10:13:48;99652.72;;;31.59;24.46
46291;BME280;32023;44.444;26.006;2023-08-07T10:21:00;99666.88;;;31.66;24.70
46291;BME280;32023;44.444;26.006;2023-08-07T10:34:44;99653.84;;;35.37;21.02
46291;BME280;32023;44.444;26.006;2023-08-07T10:42:09;99656.94;;;39.93;16.12
46291;BME280;32023;44.444;26.006;2023-08-07T11:14:31;99634.09;;;42.69;13.13
46291;BME280;32023;44.444;26.006;2023-08-07T11:27:30;99634.78;;;37.39;17.31
46291;BME280;32023;44.444;26.006;2023-08-07T11:30:10;99622.91;;;36.12;18.26
46291;BME280;32023;44.444;26.006;2023-08-07T11:32:50;99611.72;;;35.69;18.29
46291;BME280;32023;44.444;26.006;2023-08-07T11:35:56;99626.16;;;34.94;19.27
46291;BME280;32023;44.444;26.006;2023-08-07T12:19:12;99616.25;;;31.36;23.35
46291;BME280;32023;44.444;26.006;2023-08-07T12:22:02;99608.34;;;31.62;23.54
46291;BME280;32023;44.444;26.006;2023-08-07T12:24:35;99612.75;;;31.70;23.35
46291;BME280;32023;44.444;26.006;2023-08-07T12:27:08;99604.63;;;31.72;23.48
46291;BME280;32023;44.444;26.006;2023-08-07T12:37:13;99610.09;;;31.45;23.30
46291;BME280;32023;44.444;26.006;2023-08-07T12:39:52;99601.47;;;31.59;23.17
46291;BME280;32023;44.444;26.006;2023-08-07T12:42:36;99617.69;;;31.62;22.77
46291;BME280;32023;44.444;26.006;2023-08-07T12:45:34;99613.72;;;31.52;22.90
46291;BME280;32023;44.444;26.006;2023-08-07T12:52:23;99615.19;;;31.16;22.67
46291;BME280;32023;44.444;26.006;2023-08-07T12:55:18;99613.09;;;31.24;22.99
46291;BME280;32023;44.444;26.006;2023-08-07T13:01:13;99615.63;;;31.11;23.13
46291;BME280;32023;44.444;26.006;2023-08-07T13:04:28;99609.59;;;30.95;24.26
46291;BME280;32023;44.444;26.006;2023-08-07T13:16:47;99603.31;;;30.55;23.81
46291;BME280;32023;44.444;26.006;2023-08-07T13:19:58;99611.41;;;30.61;24.37
46291;BME280;32023;44.444;26.006;2023-08-07T13:26:58;99603.69;;;30.65;24.50
46291;BME280;32023;44.444;26.006;2023-08-07T13:30:36;99611.78;;;30.70;24.71
46291;BME280;32023;44.444;26.006;2023-08-07T13:33:54;99618.75;;;30.54;24.34
46291;BME280;32023;44.444;26.006;2023-08-07T13:36:50;99624.88;;;30.46;24.65
46291;BME280;32023;44.444;26.006;2023-08-07T13:39:30;99612.66;;;30.52;24.18
46291;BME280;32023;44.444;26.006;2023-08-07T13:41:58;99613.88;;;30.55;24.50
46291;BME280;32023;44.444;26.006;2023-08-07T13:44:29;99604.13;;;30.52;23.79
46291;BME280;32023;44.444;26.006;2023-08-07T13:47:01;99630.13;;;30.40;24.29
46291;BME280;32023;44.444;26.006;2023-08-07T13:49:27;99629.78;;;30.28;24.17
46291;BME280;32023;44.444;26.006;2023-08-07T13:52:03;99632.66;;;30.14;24.32
46291;BME280;32023;44.444;26.006;2023-08-07T13:54:40;99633.47;;;30.03;23.90
46291;BME280;32023;44.444;26.006;2023-08-07T13:57:14;99637.53;;;30.13;24.18
46291;BME280;32023;44.444;26.006;2023-08-07T14:00:01;99641.97;;;30.14;24.16
46291;BME280;32023;44.444;26.006;2023-08-07T14:02:58;99641.97;;;30.10;23.95
46291;BME280;32023;44.444;26.006;2023-08-07T14:05:26;99649.28;;;30.08;24.22
46291;BME280;32023;44.444;26.006;2023-08-07T14:08:04;99653.34;;;30.10;24.09
46291;BME280;32023;44.444;26.006;2023-08-07T14:10:33;99652.56;;;29.96;24.55
46291;BME280;32023;44.444;26.006;2023-08-07T14:13:02;99653.38;;;29.82;24.27
46291;BME280;32023;44.444;26.006;2023-08-07T14:15:28;99646.03;;;29.85;24.78
46291;BME280;32023;44.444;26.006;2023-08-07T14:18:05;99661.44;;;29.84;25.38
46291;BME280;32023;44.444;26.006;2023-08-07T14:20:32;99659.44;;;29.81;25.12
46291;BME280;32023;44.444;26.006;2023-08-07T14:22:59;99657.84;;;29.80;24.98
46291;BME280;32023;44.444;26.006;2023-08-07T14:25:25;99654.16;;;29.69;25.10
46291;BME280;32023;44.444;26.006;2023-08-07T14:28:03;99649.72;;;29.82;24.97
46291;BME280;32023;44.444;26.006;2023-08-07T14:30:30;99656.19;;;29.79;25.12
46291;BME280;32023;44.444;26.006;2023-08-07T14:32:58;99661.06;;;29.75;25.44
46291;BME280;32023;44.444;26.006;2023-08-07T14:35:25;99663.91;;;29.75;25.48
46291;BME280;32023;44.444;26.006;2023-08-07T14:37:54;99654.19;;;29.72;25.76
46291;BME280;32023;44.444;26.006;2023-08-07T14:40:23;99646.47;;;29.69;25.50
46291;BME280;32023;44.444;26.006;2023-08-07T14:42:57;99641.59;;;29.73;25.66
46291;BME280;32023;44.444;26.006;2023-08-07T14:45:31;99657.00;;;29.69;26.08
46291;BME280;32023;44.444;26.006;2023-08-07T14:48:08;99640.78;;;29.69;25.94
46291;BME280;32023;44.444;26.006;2023-08-07T14:50:38;99649.72;;;29.64;26.14
46291;BME280;32023;44.444;26.006;2023-08-07T14:56:33;99657.81;;;29.44;25.83
46291;BME280;32023;44.444;26.006;2023-08-07T14:59:18;99648.50;;;29.47;25.74
46291;BME280;32023;44.444;26.006;2023-08-07T15:02:23;99655.78;;;29.34;25.90
46291;BME280;32023;44.444;26.006;2023-08-07T15:04:59;99647.66;;;29.33;25.79
46291;BME280;32023;44.444;26.006;2023-08-07T15:07:30;99650.03;;;29.20;25.95
46291;BME280;32023;44.444;26.006;2023-08-07T15:09:57;99652.47;;;29.14;25.97
46291;BME280;32023;44.444;26.006;2023-08-07T15:12:28;99635.47;;;29.18;26.48
46291;BME280;32023;44.444;26.006;2023-08-07T15:15:01;99641.94;;;29.15;26.08
46291;BME280;32023;44.444;26.006;2023-08-07T15:17:49;99650.00;;;29.06;25.84
46291;BME280;32023;44.444;26.006;2023-08-07T15:23:10;99650.78;;;28.89;25.53
46291;BME280;32023;44.444;26.006;2023-08-07T15:25:40;99644.28;;;28.85;25.94
46291;BME280;32023;44.444;26.006;2023-08-07T15:28:42;99562.09;;;27.95;25.99
46291;BME280;32023;44.444;26.006;2023-08-07T15:34:52;99659.88;;;28.43;26.95
46291;BME280;32023;44.444;26.006;2023-08-07T15:37:20;99656.19;;;28.36;27.09
46291;BME280;32023;44.444;26.006;2023-08-07T15:39:47;99660.22;;;28.31;27.37
46291;BME280;32023;44.444;26.006;2023-08-07T15:42:34;99657.38;;;28.31;27.27
46291;BME280;32023;44.444;26.006;2023-08-07T15:45:29;99666.72;;;28.39;26.58
46291;BME280;32023;44.444;26.006;2023-08-07T15:48:18;99661.78;;;28.25;26.39
46291;BME280;32023;44.444;26.006;2023-08-07T15:50:50;99670.25;;;28.21;26.81
46291;BME280;32023;44.444;26.006;2023-08-07T15:53:29;99671.50;;;28.24;26.96
46291;BME280;32023;44.444;26.006;2023-08-07T15:56:11;99677.19;;;28.28;27.17
46291;BME280;32023;44.444;26.006;2023-08-07T16:02:16;99673.50;;;28.20;26.80
46291;BME280;32023;44.444;26.006;2023-08-07T16:04:56;99679.56;;;28.22;26.88
46291;BME280;32023;44.444;26.006;2023-08-07T16:07:49;99686.38;;;28.14;26.47
46291;BME280;32023;44.444;26.006;2023-08-07T16:10:22;99684.22;;;27.97;27.06
46291;BME280;32023;44.444;26.006;2023-08-07T16:18:45;99677.56;;;27.71;26.93
46291;BME280;32023;44.444;26.006;2023-08-07T16:21:27;99692.13;;;27.73;27.22
46291;BME280;32023;44.444;26.006;2023-08-07T16:24:05;99695.28;;;27.68;27.21
46291;BME280;32023;44.444;26.006;2023-08-07T16:26:44;99695.28;;;27.68;26.96
46291;BME280;32023;44.444;26.006;2023-08-07T16:29:46;99692.47;;;27.68;27.27
46291;BME280;32023;44.444;26.006;2023-08-07T16:32:31;99699.28;;;27.60;27.39
46291;BME280;32023;44.444;26.006;2023-08-07T16:35:06;99706.56;;;27.61;27.45
46291;BME280;32023;44.444;26.006;2023-08-07T16:46:43;99715.53;;;27.30;28.62
46291;BME280;32023;44.444;26.006;2023-08-07T16:53:12;99731.56;;;27.19;29.18
46291;BME280;32023;44.444;26.006;2023-08-07T16:55:43;99733.63;;;27.25;29.44
46291;BME280;32023;44.444;26.006;2023-08-07T17:09:55;99747.94;;;27.06;30.16
46291;BME280;32023;44.444;26.006;2023-08-07T17:12:30;99747.50;;;27.04;30.35
46291;BME280;32023;44.444;26.006;2023-08-07T17:15:11;99743.91;;;27.04;30.12
46291;BME280;32023;44.444;26.006;2023-08-07T17:17:44;99742.25;;;27.03;30.33
46291;BME280;32023;44.444;26.006;2023-08-07T17:20:15;99747.88;;;26.99;30.57
46291;BME280;32023;44.444;26.006;2023-08-07T17:25:37;99752.81;;;26.79;30.41
46291;BME280;32023;44.444;26.006;2023-08-07T17:28:33;99757.19;;;26.73;30.51
46291;BME280;32023;44.444;26.006;2023-08-07T17:31:28;99763.53;;;26.67;30.60
46291;BME280;32023;44.444;26.006;2023-08-07T17:33:57;99759.22;;;27.03;29.80
46291;BME280;32023;44.444;26.006;2023-08-07T17:36:27;99753.44;;;29.33;26.16
46291;BME280;32023;44.444;26.006;2023-08-07T17:38:59;99757.84;;;31.18;23.99
46291;BME280;32023;44.444;26.006;2023-08-07T17:41:35;99758.00;;;32.25;22.55
46291;BME280;32023;44.444;26.006;2023-08-07T17:44:10;99773.75;;;32.81;21.96
46291;BME280;32023;44.444;26.006;2023-08-07T17:46:51;99769.72;;;33.09;21.56
46291;BME280;32023;44.444;26.006;2023-08-07T17:49:21;99778.88;;;33.30;21.10
46291;BME280;32023;44.444;26.006;2023-08-07T17:52:18;99780.63;;;33.51;20.97
46291;BME280;32023;44.444;26.006;2023-08-07T17:54:47;99778.84;;;33.64;20.82